createdAt,value
2018-12-04T00:01:40.659Z,99336.31
2018-12-04T00:04:08.955Z,99343.25
2018-12-04T00:06:37.271Z,99341.52
2018-12-04T00:09:07.154Z,99341.05
2018-12-04T00:11:35.453Z,99349.28
2018-12-04T00:14:03.883Z,99346.68
2018-12-04T00:16:32.710Z,99350.58
2018-12-04T00:19:01.237Z,99354.48
2018-12-04T00:21:29.721Z,99347.55
2018-12-04T00:23:58.012Z,99358.82
2018-12-04T00:26:26.314Z,99354.91
2018-12-04T00:28:54.626Z,99359.69
2018-12-04T00:31:22.996Z,99362.28
2018-12-04T00:33:51.324Z,99367.02
2018-12-04T00:36:19.762Z,99367.02
2018-12-04T00:38:48.058Z,99364.41
2018-12-04T00:41:16.365Z,99373.52
2018-12-04T00:43:44.779Z,99378.72
2018-12-04T00:46:13.074Z,99377.38
2018-12-04T00:48:41.374Z,99378.23
2018-12-04T00:51:09.705Z,99382.14
2018-12-04T00:53:38.050Z,99388.61
2018-12-04T00:56:06.352Z,99382.97
2018-12-04T00:58:34.686Z,99396.42
2018-12-04T01:01:02.988Z,99399.89
2018-12-04T01:03:31.290Z,99404.66
2018-12-04T01:05:59.691Z,99403.80
2018-12-04T01:08:28.048Z,99410.73
2018-12-04T01:10:56.349Z,99415.51
2018-12-04T01:13:24.659Z,99413.34
2018-12-04T01:15:53.013Z,99415.94
2018-12-04T01:18:21.315Z,99415.50
2018-12-04T01:20:49.634Z,99410.25
2018-12-04T01:23:17.940Z,99412.41
2018-12-04T01:25:46.244Z,99415.45
2018-12-04T01:28:14.862Z,99406.34
2018-12-04T01:30:43.143Z,99413.28
2018-12-04T01:33:11.456Z,99407.20
2018-12-04T01:35:39.858Z,99421.09
2018-12-04T01:38:08.159Z,99426.74
2018-12-04T01:40:36.460Z,99421.97
2018-12-04T01:43:05.019Z,99420.67
2018-12-04T01:45:33.319Z,99421.57
2018-12-04T01:48:01.620Z,99416.80
2018-12-04T01:50:30.055Z,99418.97
2018-12-04T01:52:58.351Z,99418.06
2018-12-04T01:55:26.653Z,99422.84
2018-12-04T01:57:55.096Z,99419.80
2018-12-04T02:00:23.455Z,99421.95
2018-12-04T02:02:51.762Z,99414.13
2018-12-04T02:05:20.331Z,99416.73
2018-12-04T02:07:48.626Z,99414.95
2018-12-04T02:10:16.945Z,99424.50
2018-12-04T02:12:45.351Z,99426.66
2018-12-04T02:15:14.248Z,99424.05
2018-12-04T02:17:42.547Z,99421.43
2018-12-04T02:20:11.000Z,99421.38
2018-12-04T02:22:39.489Z,99419.20
2018-12-04T02:25:07.958Z,99423.56
2018-12-04T02:27:36.327Z,99428.81
2018-12-04T02:30:05.035Z,99437.95
2018-12-04T02:32:33.351Z,99431.87
2018-12-04T02:35:01.772Z,99433.16
2018-12-04T02:37:30.180Z,99436.59
2018-12-04T02:39:58.479Z,99441.79
2018-12-04T02:42:26.824Z,99450.91
2018-12-04T02:44:55.317Z,99459.59
2018-12-04T02:47:23.705Z,99453.93
2018-12-04T02:49:52.066Z,99459.52
2018-12-04T02:52:20.399Z,99469.07
2018-12-04T02:54:48.728Z,99466.02
2018-12-04T02:57:17.213Z,99473.79
2018-12-04T02:59:45.580Z,99475.08
2018-12-04T03:02:13.876Z,99482.05
2018-12-04T03:04:42.247Z,99485.95
2018-12-04T03:07:10.564Z,99495.47
2018-12-04T03:09:39.199Z,99507.63
2018-12-04T03:12:07.658Z,99513.27
2018-12-04T03:14:35.966Z,99521.96
2018-12-04T03:17:04.339Z,99548.48
2018-12-04T03:19:32.725Z,99546.77
2018-12-04T03:22:01.091Z,99555.91
2018-12-04T03:24:29.403Z,99567.66
2018-12-04T03:26:57.755Z,99577.27
2018-12-04T03:29:26.077Z,99580.36
2018-12-04T03:31:54.401Z,99592.09
2018-12-04T03:34:22.887Z,99601.26
2018-12-04T03:36:51.193Z,99600.85
2018-12-04T03:39:19.544Z,99614.77
2018-12-04T03:41:47.859Z,99623.45
2018-12-04T03:44:16.512Z,99634.31
2018-12-04T03:46:44.851Z,99641.25
2018-12-04T03:49:13.253Z,99642.11
2018-12-04T03:51:41.649Z,99649.48
2018-12-04T03:54:09.970Z,99650.80
2018-12-04T03:56:38.263Z,99665.11
2018-12-04T03:59:06.592Z,99668.56
2018-12-04T04:01:34.897Z,99682.87
2018-12-04T04:04:03.237Z,99686.36
2018-12-04T04:06:31.558Z,99693.69
2018-12-04T04:08:59.855Z,99698.45
2018-12-04T04:11:28.177Z,99708.39
2018-12-04T04:13:56.538Z,99716.19
2018-12-04T04:16:25.028Z,99720.09
2018-12-04T04:18:53.360Z,99724.87
2018-12-04T04:21:21.663Z,99727.48
2018-12-04T04:23:49.982Z,99726.17
2018-12-04T04:26:18.339Z,99742.67
2018-12-04T04:28:46.717Z,99750.91
2018-12-04T04:31:15.090Z,99758.70
2018-12-04T04:33:43.570Z,99751.75
2018-12-04T04:36:12.087Z,99758.66
2018-12-04T04:38:40.586Z,99766.02
2018-12-04T04:41:08.890Z,99772.94
2018-12-04T04:43:37.301Z,99783.36
2018-12-04T04:46:05.676Z,99795.90
2018-12-04T04:48:34.253Z,99794.59
2018-12-04T04:51:02.556Z,99797.16
2018-12-04T04:53:30.917Z,99808.84
2018-12-04T04:55:59.237Z,99822.27
2018-12-04T04:58:27.536Z,99819.24
2018-12-04T05:00:55.872Z,99837.86
2018-12-04T05:03:24.291Z,99843.47
2018-12-04T05:05:52.618Z,99846.05
2018-12-04T05:08:21.225Z,99849.50
2018-12-04T05:10:49.637Z,99858.58
2018-12-04T05:13:18.155Z,99869.39
2018-12-04T05:15:46.547Z,99871.97
2018-12-04T05:18:15.316Z,99879.74
2018-12-04T05:20:43.629Z,99884.48
2018-12-04T05:23:11.952Z,99898.33
2018-12-04T05:25:40.457Z,99907.41
2018-12-04T05:28:08.752Z,99919.09
2018-12-04T05:30:37.211Z,99923.43
2018-12-04T05:33:05.526Z,99934.25
2018-12-04T05:35:33.975Z,99944.19
2018-12-04T05:38:02.377Z,99946.33
2018-12-04T05:40:30.733Z,99947.20
2018-12-04T05:42:59.097Z,99952.82
2018-12-04T05:45:27.512Z,99964.52
2018-12-04T05:47:55.818Z,99971.45
2018-12-04T05:50:24.344Z,99973.19
2018-12-04T05:53:10.496Z,99979.67
2018-12-04T05:55:38.917Z,99982.66
2018-12-04T05:58:07.212Z,99987.84
2018-12-04T06:00:35.580Z,100007.73
2018-12-04T06:03:03.909Z,100015.98
2018-12-04T06:05:32.218Z,100024.63
2018-12-04T06:08:00.535Z,100032.42
2018-12-04T06:10:28.897Z,100038.52
2018-12-04T06:12:57.281Z,100043.72
2018-12-04T06:15:25.638Z,100050.21
2018-12-04T06:17:54.024Z,100057.16
2018-12-04T06:20:22.408Z,100064.55
2018-12-04T06:22:50.767Z,100078.84
2018-12-04T06:25:19.097Z,100078.41
2018-12-04T06:27:47.440Z,100084.02
2018-12-04T06:30:15.736Z,100084.00
2018-12-04T06:32:44.274Z,100088.75
2018-12-04T06:35:12.573Z,100085.29
2018-12-04T06:37:41.062Z,100097.34
2018-12-04T06:40:09.554Z,100108.91
2018-12-04T06:42:38.016Z,100110.01
2018-12-04T06:45:06.458Z,100120.68
2018-12-04T06:47:34.767Z,100126.68
2018-12-04T06:50:04.396Z,100138.31
2018-12-04T06:52:32.689Z,100141.34
2018-12-04T06:55:01.141Z,100159.56
2018-12-04T06:57:29.463Z,100170.48
2018-12-04T06:59:57.764Z,100171.05
2018-12-04T07:02:26.188Z,100169.81
2018-12-04T07:04:54.484Z,100191.50
2018-12-04T07:07:22.836Z,100194.09
2018-12-04T07:09:51.156Z,100199.64
2018-12-04T07:12:19.489Z,100203.77
2018-12-04T07:14:47.983Z,100219.13
2018-12-04T07:17:16.295Z,100226.30
2018-12-04T07:19:44.642Z,100243.89
2018-12-04T07:22:12.952Z,100239.94
2018-12-04T07:24:41.286Z,100250.27
2018-12-04T07:27:09.783Z,100256.63
2018-12-04T07:29:38.087Z,100265.16
2018-12-04T07:32:06.405Z,100273.72
2018-12-04T07:34:34.732Z,100274.27
2018-12-04T07:37:03.084Z,100279.53
2018-12-04T07:39:31.563Z,100285.73
2018-12-04T07:41:59.857Z,100289.19
2018-12-04T07:44:28.168Z,100305.34
2018-12-04T07:46:56.484Z,100308.70
2018-12-04T07:49:24.795Z,100312.77
2018-12-04T07:51:53.130Z,100319.17
2018-12-04T07:54:21.441Z,100327.40
2018-12-04T07:56:49.852Z,100333.45
2018-12-04T07:59:18.197Z,100346.80
2018-12-04T08:01:46.561Z,100349.92
2018-12-04T08:04:15.042Z,100361.91
2018-12-04T08:06:43.355Z,100368.12
2018-12-04T08:09:11.682Z,100366.23
2018-12-04T08:11:40.073Z,100381.02
2018-12-04T08:14:08.437Z,100385.40
2018-12-04T08:16:36.943Z,100387.23
2018-12-04T08:19:05.288Z,100395.98
2018-12-04T08:21:33.588Z,100399.81
2018-12-04T08:24:01.909Z,100401.91
2018-12-04T08:26:30.276Z,100414.52
2018-12-04T08:28:58.631Z,100408.60
2018-12-04T08:31:26.930Z,100419.42
2018-12-04T08:33:55.284Z,100422.80
2018-12-04T08:36:23.658Z,100433.00
2018-12-04T08:38:51.972Z,100433.66
2018-12-04T08:41:20.313Z,100445.55
2018-12-04T08:43:48.644Z,100452.05
2018-12-04T08:46:16.965Z,100459.78
2018-12-04T08:48:45.296Z,100464.33
2018-12-04T08:51:13.611Z,100467.59
2018-12-04T08:53:41.946Z,100482.56
2018-12-04T08:56:10.256Z,100476.13
2018-12-04T08:58:38.575Z,100486.19
2018-12-04T09:01:06.908Z,100488.73
2018-12-04T09:03:35.224Z,100503.95
2018-12-04T09:06:05.610Z,100500.98
2018-12-04T09:08:33.941Z,100508.47
2018-12-04T09:11:02.257Z,100510.66
2018-12-04T09:13:30.659Z,100521.13
2018-12-04T09:15:59.037Z,100528.59
2018-12-04T09:18:27.574Z,100535.11
2018-12-04T09:20:55.999Z,100549.09
2018-12-04T09:23:24.526Z,100553.04
2018-12-04T09:25:52.966Z,100559.61
2018-12-04T09:28:21.420Z,100565.69
2018-12-04T09:30:49.998Z,100574.40
2018-12-04T09:33:18.310Z,100564.34
2018-12-04T09:35:46.700Z,100570.80
2018-12-04T09:38:15.031Z,100577.36
2018-12-04T09:40:43.564Z,100584.72
2018-12-04T09:43:11.914Z,100581.25
2018-12-04T09:45:40.284Z,100585.59
2018-12-04T09:48:08.594Z,100585.61
2018-12-04T09:50:36.940Z,100576.50
2018-12-04T09:53:05.252Z,100583.80
2018-12-04T09:55:33.690Z,100598.98
2018-12-04T09:58:02.016Z,100602.77
2018-12-04T10:00:30.388Z,100604.41
2018-12-04T10:02:58.730Z,100599.80
2018-12-04T10:05:27.039Z,100602.23
2018-12-04T10:07:55.536Z,100609.92
2018-12-04T10:10:23.838Z,100610.53
2018-12-04T10:12:52.223Z,100605.09
2018-12-04T10:15:20.673Z,100611.68
2018-12-04T10:17:48.984Z,100619.70
2018-12-04T10:20:18.007Z,100619.97
2018-12-04T10:22:46.327Z,100630.09
2018-12-04T10:25:14.652Z,100626.01
2018-12-04T10:27:42.977Z,100622.84
2018-12-04T10:30:11.414Z,100634.53
2018-12-04T10:32:39.927Z,100645.02
2018-12-04T10:35:08.297Z,100627.36
2018-12-04T10:37:36.610Z,100646.85
2018-12-04T10:40:06.410Z,100653.65
2018-12-04T10:42:34.747Z,100651.81
2018-12-04T10:45:03.130Z,100661.86
2018-12-04T10:47:31.436Z,100660.19
2018-12-04T10:49:59.761Z,100674.02
2018-12-04T10:52:27.670Z,100672.53
2018-12-04T10:54:56.162Z,100682.39
2018-12-04T10:57:24.506Z,100685.75
2018-12-04T10:59:52.797Z,100682.53
2018-12-04T11:02:24.425Z,100674.53
2018-12-04T11:04:52.736Z,100690.16
2018-12-04T11:07:21.045Z,100692.40
2018-12-04T11:09:49.415Z,100692.92
2018-12-04T11:12:17.776Z,100700.40
2018-12-04T11:14:46.174Z,100701.77
2018-12-04T11:17:14.576Z,100712.42
2018-12-04T11:19:43.025Z,100707.03
2018-12-04T11:22:11.435Z,100706.66
2018-12-04T11:24:39.738Z,100700.66
2018-12-04T11:27:08.153Z,100710.30
2018-12-04T11:29:36.465Z,100707.80
2018-12-04T11:32:04.870Z,100702.16
2018-12-04T11:34:33.185Z,100726.44
2018-12-04T11:37:01.515Z,100724.70
2018-12-04T11:39:29.859Z,100733.45
2018-12-04T11:41:58.242Z,100740.34
2018-12-04T11:44:26.564Z,100750.28
2018-12-04T11:46:54.989Z,100755.13
2018-12-04T11:49:23.288Z,100760.43
2018-12-04T11:51:51.991Z,100754.80
2018-12-04T11:54:20.291Z,100766.09
2018-12-04T11:56:48.704Z,100772.67
2018-12-04T11:59:17.024Z,100769.16
2018-12-04T12:01:45.331Z,100776.03
2018-12-04T12:04:13.648Z,100784.19
2018-12-04T12:06:41.963Z,100794.00
2018-12-04T12:09:10.411Z,100797.20
2018-12-04T12:11:38.717Z,100797.92
2018-12-04T12:14:07.185Z,100791.38
2018-12-04T12:16:35.508Z,100799.61
2018-12-04T12:19:03.895Z,100805.44
2018-12-04T12:21:32.238Z,100798.21
2018-12-04T12:24:00.550Z,100799.52
2018-12-04T12:26:28.848Z,100811.56
2018-12-04T12:28:57.172Z,100826.31
2018-12-04T12:34:00.208Z,100831.45
2018-12-04T12:36:28.604Z,100820.52
2018-12-04T12:38:56.928Z,100823.09
2018-12-04T12:43:59.828Z,100835.01
2018-12-04T12:46:28.151Z,100822.77
2018-12-04T12:48:56.457Z,100832.17
2018-12-04T12:51:24.784Z,100833.27
2018-12-04T12:53:53.124Z,100836.92
2018-12-04T12:56:21.579Z,100844.03
2018-12-04T12:58:49.967Z,100848.55
2018-12-04T13:01:18.544Z,100849.66
2018-12-04T13:03:47.033Z,100854.22
2018-12-04T13:06:15.324Z,100859.18
2018-12-04T13:08:44.505Z,100875.89
2018-12-04T13:11:12.873Z,100861.66
2018-12-04T13:13:41.175Z,100863.42
2018-12-04T13:16:09.502Z,100859.64
2018-12-04T13:18:37.909Z,100883.52
2018-12-04T13:21:06.255Z,100886.53
2018-12-04T13:23:34.677Z,100916.79
2018-12-04T13:26:02.992Z,100918.94
2018-12-04T13:28:31.308Z,100916.77
2018-12-04T13:30:59.615Z,100917.77
2018-12-04T13:33:28.086Z,100918.53
2018-12-04T13:35:56.514Z,100930.41
2018-12-04T13:38:24.827Z,100936.02
2018-12-04T13:40:53.148Z,100943.85
2018-12-04T13:43:21.457Z,100945.19
2018-12-04T13:45:50.000Z,100958.41
2018-12-04T13:48:18.385Z,100954.11
2018-12-04T13:50:46.828Z,100954.00
2018-12-04T13:53:15.157Z,100958.36
2018-12-04T13:55:43.496Z,100963.59
2018-12-04T13:58:12.076Z,100963.55
2018-12-04T14:00:40.401Z,100972.05
2018-12-04T14:03:08.798Z,100971.09
2018-12-04T14:05:37.222Z,100980.01
2018-12-04T14:08:05.648Z,100991.45
2018-12-04T14:10:33.982Z,100987.52
2018-12-04T14:13:02.449Z,100994.80
2018-12-04T14:15:30.950Z,100998.17
2018-12-04T14:17:59.266Z,101010.03
2018-12-04T14:20:27.594Z,101006.83
2018-12-04T14:22:56.089Z,101018.80
2018-12-04T14:25:24.545Z,101019.86
2018-12-04T14:27:52.879Z,101030.94
2018-12-04T14:30:21.301Z,101039.88
2018-12-04T14:32:49.910Z,101041.88
2018-12-04T14:35:18.208Z,101059.02
2018-12-04T14:37:46.519Z,101061.93
2018-12-04T14:40:14.847Z,101067.41
2018-12-04T14:42:43.174Z,101070.82
2018-12-04T14:45:11.681Z,101067.13
2018-12-04T14:47:40.310Z,101081.23
2018-12-04T14:50:09.353Z,101089.41
2018-12-04T14:52:37.665Z,101098.07
2018-12-04T14:55:07.054Z,101089.50
2018-12-04T14:57:35.464Z,101103.34
2018-12-04T15:00:07.555Z,101108.52
2018-12-04T15:02:36.202Z,101111.23
2018-12-04T15:05:05.786Z,101116.35
2018-12-04T15:07:34.186Z,101115.73
2018-12-04T15:10:02.927Z,101123.59
2018-12-04T15:12:31.324Z,101127.62
2018-12-04T15:14:59.834Z,101142.84
2018-12-04T15:17:28.264Z,101147.79
2018-12-04T15:19:56.609Z,101154.95
2018-12-04T15:22:25.020Z,101156.94
2018-12-04T15:24:53.620Z,101163.28
2018-12-04T15:27:22.108Z,101166.69
2018-12-04T15:29:50.641Z,101167.48
2018-12-04T15:32:19.182Z,101176.81
2018-12-04T15:34:47.511Z,101176.68
2018-12-04T15:37:15.903Z,101189.08
2018-12-04T15:39:44.368Z,101187.65
2018-12-04T15:42:12.827Z,101192.72
2018-12-04T15:44:41.500Z,101197.70
2018-12-04T15:47:09.893Z,101205.26
2018-12-04T15:49:38.229Z,101219.77
2018-12-04T15:52:06.728Z,101212.23
2018-12-04T15:54:35.219Z,101214.28
2018-12-04T15:57:03.648Z,101209.23
2018-12-04T15:59:31.965Z,101225.12
2018-12-04T16:02:00.333Z,101226.42
2018-12-04T16:04:28.739Z,101239.45
2018-12-04T16:06:57.051Z,101240.69
2018-12-04T16:09:25.473Z,101244.38
2018-12-04T16:11:53.776Z,101250.78
2018-12-04T16:14:22.229Z,101253.77
2018-12-04T16:16:50.585Z,101253.49
2018-12-04T16:19:18.994Z,101262.44
2018-12-04T16:21:47.343Z,101265.28
2018-12-04T16:24:15.650Z,101265.41
2018-12-04T16:26:43.973Z,101272.20
2018-12-04T16:29:12.403Z,101284.17
2018-12-04T16:31:40.716Z,101286.16
2018-12-04T16:34:09.273Z,101299.42
2018-12-04T16:36:37.602Z,101303.22
2018-12-04T16:39:07.340Z,101308.32
2018-12-04T16:41:35.664Z,101311.64
2018-12-04T16:44:04.191Z,101318.92
2018-12-04T16:46:32.871Z,101322.24
2018-12-04T16:49:01.305Z,101324.23
2018-12-04T16:51:29.600Z,101331.91
2018-12-04T16:53:57.977Z,101326.19
2018-12-04T16:56:26.311Z,101342.83
2018-12-04T16:58:54.624Z,101361.33
2018-12-04T17:01:22.984Z,101351.39
2018-12-04T17:03:51.369Z,101348.25
2018-12-04T17:06:19.899Z,101356.37
2018-12-04T17:08:48.202Z,101354.52
2018-12-04T17:11:16.544Z,101358.72
2018-12-04T17:13:44.893Z,101361.23
2018-12-04T17:16:13.239Z,101370.59
2018-12-04T17:18:41.559Z,101368.83
2018-12-04T17:21:09.920Z,101367.86
2018-12-04T17:23:38.384Z,101378.88
2018-12-04T17:26:06.692Z,101383.97
2018-12-04T17:28:35.001Z,101391.23
2018-12-04T17:31:03.329Z,101391.48
2018-12-04T17:33:31.624Z,101397.78
2018-12-04T17:35:59.967Z,101400.16
2018-12-04T17:38:28.640Z,101400.81
2018-12-04T17:40:56.946Z,101400.73
2018-12-04T17:43:25.425Z,101402.75
2018-12-04T17:45:53.801Z,101408.16
2018-12-04T17:48:22.116Z,101410.13
2018-12-04T17:50:50.448Z,101403.75
2018-12-04T17:53:18.828Z,101417.31
2018-12-04T17:55:47.202Z,101416.70
2018-12-04T17:58:15.589Z,101423.47
2018-12-04T18:00:43.922Z,101425.80
2018-12-04T18:03:12.220Z,101430.72
2018-12-04T18:05:40.547Z,101428.01
2018-12-04T18:08:08.850Z,101427.84
2018-12-04T18:10:37.294Z,101434.20
2018-12-04T18:13:05.664Z,101433.16
2018-12-04T18:15:34.045Z,101443.63
2018-12-04T18:18:02.515Z,101438.66
2018-12-04T18:20:30.823Z,101448.00
2018-12-04T18:22:59.144Z,101450.41
2018-12-04T18:25:27.558Z,101461.84
2018-12-04T18:27:55.955Z,101457.01
2018-12-04T18:30:24.524Z,101464.30
2018-12-04T18:32:52.847Z,101471.55
2018-12-04T18:35:21.161Z,101465.50
2018-12-04T18:37:49.559Z,101470.48
2018-12-04T18:40:17.977Z,101479.74
2018-12-04T18:42:46.268Z,101472.49
2018-12-04T18:45:14.787Z,101476.67
2018-12-04T18:47:43.098Z,101473.44
2018-12-04T18:50:11.541Z,101469.52
2018-12-04T18:52:40.840Z,101472.55
2018-12-04T18:57:56.191Z,101475.79
2018-12-04T19:00:24.628Z,101480.95
2018-12-04T19:02:54.432Z,101484.81
2018-12-04T19:05:22.751Z,101486.41
2018-12-04T19:07:51.074Z,101488.11
2018-12-04T19:10:19.435Z,101493.27
2018-12-04T19:12:47.853Z,101498.65
2018-12-04T19:15:16.163Z,101499.05
2018-12-04T19:17:44.483Z,101499.54
2018-12-04T19:20:13.122Z,101502.83
2018-12-04T19:22:42.123Z,101507.01
2018-12-04T19:25:11.180Z,101510.34
2018-12-04T19:27:39.545Z,101514.91
2018-12-04T19:30:11.588Z,101512.73
2018-12-04T19:32:39.968Z,101518.69
2018-12-04T19:35:09.916Z,101525.45
2018-12-04T19:37:38.240Z,101526.65
2018-12-04T19:40:08.726Z,101538.16
2018-12-04T19:42:37.085Z,101547.98
2018-12-04T19:45:05.666Z,101547.80
2018-12-04T19:47:34.032Z,101553.80
2018-12-04T19:50:02.444Z,101552.91
2018-12-04T19:52:30.757Z,101542.02
2018-12-04T19:54:59.106Z,101553.43
2018-12-04T19:57:27.420Z,101554.54
2018-12-04T19:59:55.728Z,101563.87
2018-12-04T20:02:24.047Z,101572.80
2018-12-04T20:04:52.348Z,101574.48
2018-12-04T20:07:20.981Z,101584.40
2018-12-04T20:09:49.286Z,101585.14
2018-12-04T20:12:17.701Z,101584.16
2018-12-04T20:14:46.114Z,101593.58
2018-12-04T20:17:14.457Z,101598.42
2018-12-04T20:19:42.890Z,101602.84
2018-12-04T20:22:11.216Z,101603.97
2018-12-04T20:24:39.547Z,101605.97
2018-12-04T20:27:08.021Z,101611.12
2018-12-04T20:29:36.335Z,101614.19
2018-12-04T20:32:04.717Z,101614.98
2018-12-04T20:34:33.138Z,101627.78
2018-12-04T20:37:01.701Z,101619.56
2018-12-04T20:39:30.043Z,101623.82
2018-12-04T20:41:58.366Z,101630.97
2018-12-04T20:44:26.701Z,101631.77
2018-12-04T20:46:54.998Z,101635.72
2018-12-04T20:49:23.321Z,101643.86
2018-12-04T20:51:51.650Z,101638.45
2018-12-04T20:54:20.103Z,101649.95
2018-12-04T20:56:48.492Z,101654.22
2018-12-04T20:59:16.969Z,101662.74
2018-12-04T21:01:45.580Z,101665.02
2018-12-04T21:04:14.015Z,101665.81
2018-12-04T21:06:42.338Z,101671.52
2018-12-04T21:09:10.685Z,101673.94
2018-12-04T21:11:39.016Z,101666.41
2018-12-04T21:14:07.312Z,101664.23
2018-12-04T21:16:35.628Z,101671.17
2018-12-04T21:19:04.186Z,101674.24
2018-12-04T21:21:32.488Z,101674.24
2018-12-04T21:24:00.859Z,101683.27
2018-12-04T21:26:36.487Z,101682.86
2018-12-04T21:29:05.241Z,101687.03
2018-12-04T21:31:39.989Z,101700.80
2018-12-04T21:34:14.447Z,101697.73
2018-12-04T21:36:48.174Z,101705.77
2018-12-04T21:42:06.495Z,101709.53
2018-12-04T21:44:40.385Z,101716.07
2018-12-04T21:47:14.628Z,101724.78
2018-12-04T21:49:42.990Z,101727.86
2018-12-04T21:52:11.388Z,101734.70
2018-12-04T21:54:39.932Z,101727.37
2018-12-04T21:57:08.371Z,101727.37
2018-12-04T21:59:36.773Z,101729.94
2018-12-04T22:02:05.192Z,101735.09
2018-12-04T22:04:33.622Z,101739.26
2018-12-04T22:07:01.996Z,101741.24
2018-12-04T22:09:30.630Z,101750.27
2018-12-04T22:11:58.991Z,101755.91
2018-12-04T22:14:27.296Z,101754.22
2018-12-04T22:16:56.164Z,101755.81
2018-12-04T22:19:24.577Z,101763.38
2018-12-04T22:21:53.188Z,101765.06
2018-12-04T22:24:21.668Z,101771.50
2018-12-04T22:26:50.073Z,101774.88
2018-12-04T22:29:18.535Z,101770.12
2018-12-04T22:31:46.988Z,101769.33
2018-12-04T22:36:49.876Z,101774.97
2018-12-04T22:39:18.194Z,101783.98
2018-12-04T22:41:46.759Z,101788.31
2018-12-04T22:44:15.359Z,101785.28
2018-12-04T22:46:43.712Z,101781.61
2018-12-04T22:49:12.409Z,101780.42
2018-12-04T22:51:40.898Z,101780.72
2018-12-04T22:54:09.221Z,101781.81
2018-12-04T22:56:37.567Z,101778.34
2018-12-04T22:59:05.911Z,101783.42
2018-12-04T23:01:39.015Z,101779.95
2018-12-04T23:04:07.917Z,101780.75
2018-12-04T23:06:36.488Z,101779.16
2018-12-04T23:09:08.508Z,101779.75
2018-12-04T23:11:37.223Z,101783.91
2018-12-04T23:14:06.181Z,101784.70
2018-12-04T23:16:34.798Z,101790.75
2018-12-04T23:19:03.229Z,101800.16
2018-12-04T23:21:31.611Z,101800.55
2018-12-04T23:24:00.012Z,101800.16
2018-12-04T23:26:28.340Z,101801.77
2018-12-04T23:28:56.658Z,101799.98
2018-12-04T23:31:24.987Z,101799.39
2018-12-04T23:33:53.327Z,101804.34
2018-12-04T23:36:21.646Z,101805.31
2018-12-04T23:38:50.043Z,101805.05
2018-12-04T23:41:18.389Z,101811.88
2018-12-04T23:43:46.694Z,101814.64
2018-12-04T23:46:15.184Z,101818.69
2018-12-04T23:48:43.552Z,101816.12
2018-12-04T23:51:11.872Z,101821.06
2018-12-04T23:53:40.303Z,101817.09
2018-12-04T23:56:08.600Z,101818.09
2018-12-04T23:58:36.948Z,101823.23
